Time,TemperatureF,DewpointF,PressureIn,WindDirection,WindDirectionDegrees,WindSpeedMPH,WindSpeedGustMPH,Humidity,HourlyPrecipIn,Conditions,Clouds,dailyrainin,SoftwareType,DateUTC
2013-08-10 00:03:00,66.6,66.6,29.74,SE,135,1.1,0.0,100,0.00,,,0.00,WSDL version 420,2013-08-10 04:03:00,
2013-08-10 00:08:00,66.6,66.6,29.74,SE,135,1.1,0.0,100,0.00,,,0.00,WSDL version 420,2013-08-10 04:08:00,
2013-08-10 00:13:00,66.4,66.4,29.74,North,-999,-999.0,-999.0,100,0.00,,,0.00,WSDL version 420,2013-08-10 04:13:00,
2013-08-10 00:18:00,66.3,66.3,29.74,North,-999,-999.0,-999.0,100,0.00,,,0.00,WSDL version 420,2013-08-10 04:18:00,
2013-08-10 00:23:00,66.2,66.2,29.74,North,-999,-999.0,-999.0,100,0.00,,,0.00,WSDL version 420,2013-08-10 04:23:00,
2013-08-10 00:28:00,66.2,66.2,29.74,North,-999,-999.0,-999.0,100,0.00,,,0.00,WSDL version 420,2013-08-10 04:28:00,
2013-08-10 00:33:00,66.4,66.4,29.77,North,-999,-999.0,-999.0,100,0.00,,,0.00,WSDL version 420,2013-08-10 04:33:00,
2013-08-10 00:38:00,66.3,66.3,29.77,North,-999,-999.0,-999.0,100,0.00,,,0.00,WSDL version 420,2013-08-10 04:38:00,
2013-08-10 00:43:00,66.2,66.2,29.77,North,-999,-999.0,-999.0,100,0.00,,,0.00,WSDL version 420,2013-08-10 04:43:00,
2013-08-10 00:48:00,66.2,66.2,29.71,North,-999,-999.0,-999.0,100,0.00,,,0.00,WSDL version 420,2013-08-10 04:48:00,
2013-08-10 00:53:00,66.2,66.2,29.71,North,-999,-999.0,-999.0,100,0.00,,,0.00,WSDL version 420,2013-08-10 04:53:00,
2013-08-10 00:58:00,66.2,66.2,29.71,North,-999,-999.0,-999.0,100,0.00,,,0.00,WSDL version 420,2013-08-10 04:58:00,
2013-08-10 01:03:00,66.1,66.1,29.74,SE,135,2.0,0.0,100,0.00,,,0.00,WSDL version 420,2013-08-10 05:03:00,
2013-08-10 01:08:00,66.0,66.0,29.74,ENE,68,2.0,3.1,100,0.00,,,0.00,WSDL version 420,2013-08-10 05:08:00,
2013-08-10 01:13:00,66.0,66.0,29.74,ESE,113,4.5,4.5,100,0.00,,,0.00,WSDL version 420,2013-08-10 05:13:00,
2013-08-10 01:18:00,66.0,66.0,29.74,ESE,120,3.7,5.6,100,-99.99,,,-99.99,WSDL version 420,2013-08-10 05:18:00,
2013-08-10 01:23:00,66.0,66.0,29.74,SE,135,2.9,5.6,100,0.00,,,0.00,WSDL version 420,2013-08-10 05:23:00,
2013-08-10 01:28:00,66.0,66.0,29.74,SE,135,1.6,4.9,100,0.00,,,0.00,WSDL version 420,2013-08-10 05:28:00,
2013-08-10 01:33:00,66.0,66.0,29.74,ESE,107,2.7,3.8,100,0.00,,,0.00,WSDL version 420,2013-08-10 05:33:00,
2013-08-10 01:38:00,66.0,66.0,29.74,ESE,113,4.9,4.9,100,0.00,,,0.00,WSDL version 420,2013-08-10 05:38:00,
2013-08-10 01:43:00,66.0,66.0,29.74,ENE,68,5.4,6.0,100,0.00,,,0.00,WSDL version 420,2013-08-10 05:43:00,
2013-08-10 01:48:00,65.8,65.8,29.74,ENE,68,5.4,6.0,100,0.00,,,0.00,WSDL version 420,2013-08-10 05:48:00,
2013-08-10 01:53:00,65.8,65.8,29.74,ENE,68,5.4,5.4,100,0.00,,,0.00,WSDL version 420,2013-08-10 05:53:00,
2013-08-10 01:58:00,65.7,65.7,29.74,SSE,150,4.3,5.4,100,0.00,,,0.00,WSDL version 420,2013-08-10 05:58:00,
2013-08-10 02:03:00,65.8,65.8,29.71,SSE,158,4.3,5.4,100,0.00,,,0.00,WSDL version 420,2013-08-10 06:03:00,
2013-08-10 02:08:00,65.8,65.8,29.71,SSE,158,4.3,5.4,100,0.00,,,0.00,WSDL version 420,2013-08-10 06:08:00,
2013-08-10 02:13:00,65.8,65.8,29.71,North,-999,-999.0,-999.0,100,0.00,,,0.00,WSDL version 420,2013-08-10 06:13:00,
2013-08-10 02:18:00,65.8,65.8,29.74,North,-999,-999.0,-999.0,100,0.00,,,0.00,WSDL version 420,2013-08-10 06:18:00,
2013-08-10 02:23:00,65.7,65.7,29.74,North,-999,-999.0,-999.0,100,0.00,,,0.00,WSDL version 420,2013-08-10 06:23:00,
2013-08-10 02:28:00,65.5,65.5,29.74,North,-999,-999.0,-999.0,100,0.00,,,0.00,WSDL version 420,2013-08-10 06:28:00,
2013-08-10 02:33:00,65.4,65.4,29.74,North,-999,-999.0,-999.0,100,0.00,,,0.00,WSDL version 420,2013-08-10 06:33:00,
2013-08-10 02:38:00,65.3,65.3,29.74,SE,135,2.0,3.4,100,0.00,,,0.00,WSDL version 420,2013-08-10 06:38:00,
2013-08-10 02:43:00,65.3,65.3,29.74,SE,124,2.1,3.6,100,0.00,,,0.00,WSDL version 420,2013-08-10 06:43:00,
2013-08-10 02:48:00,65.1,65.1,29.74,ESE,113,2.0,3.6,100,0.00,,,0.00,WSDL version 420,2013-08-10 06:48:00,
2013-08-10 02:54:00,65.1,65.1,29.74,ESE,113,2.5,2.7,100,0.00,,,0.00,WSDL version 420,2013-08-10 06:54:00,
2013-08-10 02:59:00,65.1,65.1,29.74,ENE,68,1.1,2.7,100,0.00,,,0.00,WSDL version 420,2013-08-10 06:59:00,
2013-08-10 03:06:00,65.1,65.1,29.74,North,0,0.0,2.7,100,0.00,,,0.00,WSDL version 420,2013-08-10 07:06:00,
2013-08-10 03:11:00,65.4,65.4,29.74,North,0,0.0,0.0,100,0.00,,,0.00,WSDL version 420,2013-08-10 07:11:00,
2013-08-10 03:16:00,65.5,65.5,29.74,WNW,293,1.3,2.9,100,0.00,,,0.00,WSDL version 420,2013-08-10 07:16:00,
2013-08-10 03:21:00,65.3,65.3,29.74,WNW,302,3.1,7.2,100,0.00,,,0.00,WSDL version 420,2013-08-10 07:21:00,
2013-08-10 03:26:00,65.3,65.3,29.74,NNW,330,3.4,7.2,100,0.00,,,0.00,WSDL version 420,2013-08-10 07:26:00,
2013-08-10 03:31:00,65.2,65.2,29.74,NW,315,3.4,5.4,100,0.00,,,0.00,WSDL version 420,2013-08-10 07:31:00,
2013-08-10 03:36:00,65.0,65.0,29.74,East,90,3.6,3.6,100,0.00,,,0.00,WSDL version 420,2013-08-10 07:36:00,
2013-08-10 03:41:00,64.9,64.9,29.74,ESE,113,2.5,3.6,100,0.00,,,0.00,WSDL version 420,2013-08-10 07:41:00,
2013-08-10 03:46:00,64.9,64.8,29.74,East,90,2.2,3.6,100,0.00,,,0.00,WSDL version 420,2013-08-10 07:46:00,
2013-08-10 03:51:00,64.8,64.8,29.77,ENE,68,3.1,4.0,100,0.00,,,0.00,WSDL version 420,2013-08-10 07:51:00,
2013-08-10 03:56:00,64.9,64.6,29.77,ENE,68,3.1,4.0,99,0.00,,,0.00,WSDL version 420,2013-08-10 07:56:00,
2013-08-10 04:01:00,64.9,64.6,29.77,ENE,68,3.1,4.0,99,0.00,,,0.00,WSDL version 420,2013-08-10 08:01:00,
2013-08-10 04:06:00,64.8,64.4,29.77,North,0,0.0,4.0,98,0.00,,,0.00,WSDL version 420,2013-08-10 08:06:00,
2013-08-10 04:11:00,64.7,64.0,29.77,NNW,338,3.6,4.0,98,0.00,,,0.00,WSDL version 420,2013-08-10 08:11:00,
2013-08-10 04:16:00,64.5,63.8,29.77,NNW,338,3.6,3.6,98,0.00,,,0.00,WSDL version 420,2013-08-10 08:16:00,
2013-08-10 04:21:00,64.4,63.6,29.77,NNW,338,3.6,3.6,97,0.00,,,0.00,WSDL version 420,2013-08-10 08:21:00,
2013-08-10 04:26:00,64.3,63.3,29.77,NNE,23,3.4,5.4,97,0.00,,,0.00,WSDL version 420,2013-08-10 08:26:00,
2013-08-10 04:31:00,64.1,63.1,29.77,NNE,30,2.8,5.4,97,0.00,,,0.00,WSDL version 420,2013-08-10 08:31:00,
2013-08-10 04:36:00,63.8,62.8,29.77,East,90,3.4,5.4,97,0.00,,,0.00,WSDL version 420,2013-08-10 08:36:00,
2013-08-10 04:41:00,63.7,62.5,29.77,ESE,113,3.8,3.8,96,0.00,,,0.00,WSDL version 420,2013-08-10 08:41:00,
2013-08-10 04:46:00,63.5,62.2,29.77,South,180,3.8,3.8,96,0.00,,,0.00,WSDL version 420,2013-08-10 08:46:00,
2013-08-10 04:51:00,63.2,61.9,29.77,NE,34,2.9,4.9,96,0.00,,,0.00,WSDL version 420,2013-08-10 08:51:00,
2013-08-10 04:56:00,63.0,61.7,29.77,North,11,2.2,4.9,96,0.00,,,0.00,WSDL version 420,2013-08-10 08:56:00,
2013-08-10 05:01:00,62.5,61.3,29.77,ENE,68,0.7,3.8,96,0.00,,,0.00,WSDL version 420,2013-08-10 09:01:00,
2013-08-10 05:06:00,62.2,61.0,29.77,South,176,3.0,5.6,96,0.00,,,0.00,WSDL version 420,2013-08-10 09:06:00,
2013-08-10 05:11:00,62.2,61.0,29.77,ENE,58,2.2,6.3,96,0.00,,,0.00,WSDL version 420,2013-08-10 09:11:00,
2013-08-10 05:16:00,62.1,60.8,29.77,NW,326,3.2,6.3,96,0.00,,,0.00,WSDL version 420,2013-08-10 09:16:00,
2013-08-10 05:21:00,62.1,60.8,29.77,NW,326,2.5,6.3,96,0.00,,,0.00,WSDL version 420,2013-08-10 09:21:00,
2013-08-10 05:26:00,62.1,60.6,29.77,NW,311,2.5,6.3,94,0.00,,,0.00,WSDL version 420,2013-08-10 09:26:00,
2013-08-10 05:31:00,61.9,60.6,29.77,NE,34,3.9,4.0,96,0.00,,,0.00,WSDL version 420,2013-08-10 09:31:00,
2013-08-10 05:36:00,61.8,60.6,29.80,NE,34,3.1,4.0,96,0.00,,,0.00,WSDL version 420,2013-08-10 09:36:00,
2013-08-10 05:41:00,61.6,60.3,29.80,NE,51,2.8,4.3,96,0.00,,,0.00,WSDL version 420,2013-08-10 09:41:00,
2013-08-10 05:46:00,61.3,60.1,29.80,North,360,0.5,4.3,96,0.00,,,0.00,WSDL version 420,2013-08-10 09:46:00,
2013-08-10 05:51:00,61.1,59.8,29.80,NNE,23,1.6,3.1,96,0.00,,,0.00,WSDL version 420,2013-08-10 09:51:00,
2013-08-10 05:56:00,61.0,59.7,29.80,NE,54,1.2,4.0,96,0.00,,,0.00,WSDL version 420,2013-08-10 09:56:00,
2013-08-10 06:01:00,60.7,59.6,29.80,North,360,1.2,4.0,97,0.00,,,0.00,WSDL version 420,2013-08-10 10:01:00,
2013-08-10 06:06:00,60.5,59.5,29.80,ESE,105,0.5,4.0,97,-99.99,,,-99.99,WSDL version 420,2013-08-10 10:06:00,
2013-08-10 06:11:00,60.2,59.2,29.80,ENE,60,1.6,3.4,97,0.00,,,0.00,WSDL version 420,2013-08-10 10:11:00,
2013-08-10 06:16:00,60.1,59.3,29.80,NE,34,3.0,4.7,98,0.00,,,0.00,WSDL version 420,2013-08-10 10:16:00,
2013-08-10 06:21:00,60.1,59.4,29.80,ENE,68,3.1,4.7,98,0.00,,,0.00,WSDL version 420,2013-08-10 10:21:00,
2013-08-10 06:26:00,60.2,59.5,29.80,NE,45,2.7,4.3,97,0.00,,,0.00,WSDL version 420,2013-08-10 10:26:00,
2013-08-10 06:31:00,60.4,59.4,29.80,NE,45,2.7,4.3,96,0.00,,,0.00,WSDL version 420,2013-08-10 10:31:00,
2013-08-10 06:36:00,60.4,59.2,29.80,East,90,2.2,3.8,96,0.00,,,0.00,WSDL version 420,2013-08-10 10:36:00,
2013-08-10 06:41:00,60.4,59.3,29.80,NE,41,0.5,2.2,97,0.00,,,0.00,WSDL version 420,2013-08-10 10:41:00,
2013-08-10 06:46:00,60.4,59.5,29.80,NE,45,3.0,6.0,97,0.00,,,0.00,WSDL version 420,2013-08-10 10:46:00,
2013-08-10 06:51:00,60.8,58.9,29.80,NNW,338,3.4,6.0,90,0.00,,,0.00,WSDL version 420,2013-08-10 10:51:00,
2013-08-10 06:56:00,61.3,58.4,29.80,ENE,73,2.9,6.0,90,0.00,,,0.00,WSDL version 420,2013-08-10 10:56:00,
2013-08-10 07:01:00,61.7,58.6,29.80,NNW,341,3.1,5.8,89,0.00,,,0.00,WSDL version 420,2013-08-10 11:01:00,
2013-08-10 07:06:00,61.7,57.9,29.80,North,349,3.8,5.8,87,0.00,,,0.00,WSDL version 420,2013-08-10 11:06:00,
2013-08-10 07:11:00,61.7,57.8,29.80,NNW,333,2.0,7.6,86,0.00,,,0.00,WSDL version 420,2013-08-10 11:11:00,
2013-08-10 07:16:00,61.9,57.4,29.80,NNE,15,3.0,7.6,84,0.00,,,0.00,WSDL version 420,2013-08-10 11:16:00,
2013-08-10 07:21:00,62.0,57.4,29.80,NNE,14,3.6,6.7,83,0.00,,,0.00,WSDL version 420,2013-08-10 11:21:00,
2013-08-10 07:26:00,62.2,56.8,29.80,SSE,165,4.5,8.5,82,0.00,,,0.00,WSDL version 420,2013-08-10 11:26:00,
2013-08-10 07:31:00,62.3,56.2,29.80,NW,325,5.7,10.7,79,-99.99,,,-99.99,WSDL version 420,2013-08-10 11:31:00,
2013-08-10 07:36:00,62.5,55.8,29.83,NW,304,3.8,12.8,78,0.00,,,0.00,WSDL version 420,2013-08-10 11:36:00,
2013-08-10 07:42:00,62.6,55.8,29.83,NW,315,7.5,13.0,79,0.00,,,0.00,WSDL version 420,2013-08-10 11:42:00,
2013-08-10 07:47:00,62.6,55.5,29.80,NNW,334,8.6,12.1,77,0.00,,,0.00,WSDL version 420,2013-08-10 11:47:00,
2013-08-10 07:52:00,62.6,54.9,29.80,WNW,301,8.2,12.1,76,0.00,,,0.00,WSDL version 420,2013-08-10 11:52:00,
2013-08-10 07:57:00,62.7,54.8,29.80,WNW,298,10.8,24.6,76,0.00,,,0.00,WSDL version 420,2013-08-10 11:57:00,
2013-08-10 08:02:00,62.8,54.7,29.83,WNW,296,11.3,24.6,74,0.00,,,0.00,WSDL version 420,2013-08-10 12:02:00,
2013-08-10 08:07:00,62.8,54.5,29.83,NW,318,7.1,19.2,74,0.00,,,0.00,WSDL version 420,2013-08-10 12:07:00,
2013-08-10 08:12:00,63.0,54.6,29.83,NNW,329,7.3,17.4,74,0.00,,,0.00,WSDL version 420,2013-08-10 12:12:00,
2013-08-10 08:17:00,63.0,53.8,29.83,WNW,299,5.5,15.2,71,0.00,,,0.00,WSDL version 420,2013-08-10 12:17:00,
2013-08-10 08:22:00,63.0,53.4,29.80,WNW,299,10.4,20.4,71,0.00,,,0.00,WSDL version 420,2013-08-10 12:22:00,
2013-08-10 08:27:00,63.1,53.6,29.80,NW,319,10.9,20.4,71,0.00,,,0.00,WSDL version 420,2013-08-10 12:27:00,
2013-08-10 08:32:00,63.3,53.8,29.80,WNW,290,8.1,16.3,71,-99.99,,,-99.99,WSDL version 420,2013-08-10 12:32:00,
2013-08-10 08:39:00,63.6,54.3,29.85,WNW,299,8.6,16.3,72,0.00,,,0.00,WSDL version 420,2013-08-10 12:39:00,
2013-08-10 08:44:00,63.5,53.8,29.85,WNW,293,9.1,15.7,70,0.00,,,0.00,WSDL version 420,2013-08-10 12:44:00,
2013-08-10 08:49:00,63.2,53.3,29.85,WNW,289,8.3,14.5,70,0.00,,,0.00,WSDL version 420,2013-08-10 12:49:00,
2013-08-10 08:54:00,63.3,53.2,29.85,WNW,293,7.8,14.5,69,0.00,,,0.00,WSDL version 420,2013-08-10 12:54:00,
2013-08-10 08:59:00,63.3,52.8,29.85,NW,311,9.3,18.1,67,0.00,,,0.00,WSDL version 420,2013-08-10 12:59:00,
2013-08-10 09:04:00,63.1,52.2,29.83,WNW,293,7.9,18.1,68,0.00,,,0.00,WSDL version 420,2013-08-10 13:04:00,
2013-08-10 09:14:00,63.0,50.8,29.83,West,280,9.0,15.2,65,0.00,,,0.00,WSDL version 420,2013-08-10 13:14:00,
2013-08-10 09:19:00,63.0,50.9,29.80,NNW,345,7.7,15.2,63,0.00,,,0.00,WSDL version 420,2013-08-10 13:19:00,
2013-08-10 09:24:00,63.0,50.2,29.80,NW,325,6.1,23.9,63,0.00,,,0.00,WSDL version 420,2013-08-10 13:24:00,
2013-08-10 09:29:00,63.0,50.3,29.80,WNW,296,6.9,23.9,64,0.00,,,0.00,WSDL version 420,2013-08-10 13:29:00,
2013-08-10 09:34:00,63.0,49.9,29.83,NW,319,6.1,13.4,63,0.00,,,0.00,WSDL version 420,2013-08-10 13:34:00,
2013-08-10 09:39:00,63.0,49.9,29.83,NW,321,6.8,13.4,62,0.00,,,0.00,WSDL version 420,2013-08-10 13:39:00,
2013-08-10 09:44:00,63.0,50.5,29.83,North,349,7.6,13.0,62,0.00,,,0.00,WSDL version 420,2013-08-10 13:44:00,
2013-08-10 09:49:00,63.1,50.2,29.83,NNW,328,6.9,12.8,63,0.00,,,0.00,WSDL version 420,2013-08-10 13:49:00,
2013-08-10 09:54:00,63.1,50.1,29.83,NNW,347,4.2,10.7,64,0.00,,,0.00,WSDL version 420,2013-08-10 13:54:00,
2013-08-10 09:59:00,63.0,49.5,29.83,NNW,329,4.8,10.5,61,0.00,,,0.00,WSDL version 420,2013-08-10 13:59:00,
2013-08-10 10:05:00,63.1,49.2,29.85,SE,138,3.6,10.5,61,0.00,,,0.00,WSDL version 420,2013-08-10 14:05:00,
2013-08-10 10:10:00,63.6,50.0,29.85,NNE,17,3.8,6.7,63,0.00,,,0.00,WSDL version 420,2013-08-10 14:10:00,
2013-08-10 10:17:00,64.0,50.2,29.85,ENE,77,3.0,7.8,62,0.00,,,0.00,WSDL version 420,2013-08-10 14:17:00,
2013-08-10 10:22:00,64.2,50.7,29.85,North,11,3.9,7.8,60,0.00,,,0.00,WSDL version 420,2013-08-10 14:22:00,
2013-08-10 10:27:00,64.3,49.5,29.85,WSW,253,4.6,5.4,59,0.00,,,0.00,WSDL version 420,2013-08-10 14:27:00,
2013-08-10 10:32:00,64.4,49.2,29.83,NNW,333,4.2,12.3,58,0.00,,,0.00,WSDL version 420,2013-08-10 14:32:00,
2013-08-10 10:37:00,64.6,48.5,29.83,WNW,293,4.3,12.3,54,0.00,,,0.00,WSDL version 420,2013-08-10 14:37:00,
2013-08-10 10:42:00,64.4,46.9,29.83,West,278,3.7,12.3,56,0.00,,,0.00,WSDL version 420,2013-08-10 14:42:00,
2013-08-10 10:47:00,64.4,47.3,29.83,West,270,5.0,8.5,52,0.00,,,0.00,WSDL version 420,2013-08-10 14:47:00,
2013-08-10 10:52:00,64.3,46.2,29.83,NW,321,4.8,8.1,52,0.00,,,0.00,WSDL version 420,2013-08-10 14:52:00,
2013-08-10 10:57:00,64.4,45.2,29.83,NNW,342,7.8,15.4,49,0.00,,,0.00,WSDL version 420,2013-08-10 14:57:00,
2013-08-10 11:02:00,64.4,45.5,-100.00,NNE,23,4.3,15.4,52,0.00,,,0.00,WSDL version 420,2013-08-10 15:02:00,
2013-08-10 11:07:00,64.5,46.1,29.83,ESE,113,5.5,8.7,53,0.00,,,0.00,WSDL version 420,2013-08-10 15:07:00,
2013-08-10 11:14:00,64.9,47.1,29.83,ESE,120,8.5,14.8,55,0.00,,,0.00,WSDL version 420,2013-08-10 15:14:00,
2013-08-10 11:19:00,65.1,47.6,29.85,NNW,328,4.6,14.8,50,0.00,,,0.00,WSDL version 420,2013-08-10 15:19:00,
2013-08-10 11:24:00,64.9,46.9,29.85,NNE,16,3.2,10.7,54,0.00,,,0.00,WSDL version 420,2013-08-10 15:24:00,
2013-08-10 11:29:00,65.1,47.4,29.85,ENE,65,4.4,9.8,52,0.00,,,0.00,WSDL version 420,2013-08-10 15:29:00,
2013-08-10 11:34:00,65.1,47.1,29.85,NW,312,3.7,9.8,52,0.00,,,0.00,WSDL version 420,2013-08-10 15:34:00,
2013-08-10 11:39:00,65.1,47.3,29.85,South,176,6.3,8.1,52,0.00,,,0.00,WSDL version 420,2013-08-10 15:39:00,
2013-08-10 11:44:00,65.2,46.6,29.85,North,353,3.5,10.5,49,0.00,,,0.00,WSDL version 420,2013-08-10 15:44:00,
2013-08-10 11:49:00,65.2,45.7,29.85,WSW,239,3.9,10.5,50,0.00,,,0.00,WSDL version 420,2013-08-10 15:49:00,
2013-08-10 11:55:00,65.3,46.1,29.85,NE,40,4.0,10.5,52,0.00,,,0.00,WSDL version 420,2013-08-10 15:55:00,
2013-08-10 12:00:00,65.5,46.9,29.85,NW,326,5.8,10.5,50,0.00,,,0.00,WSDL version 420,2013-08-10 16:00:00,
2013-08-10 12:05:00,65.8,47.5,29.85,North,6,4.1,8.5,50,0.00,,,0.00,WSDL version 420,2013-08-10 16:05:00,
2013-08-10 12:10:00,65.8,46.4,29.85,NNW,343,5.7,8.5,51,0.00,,,0.00,WSDL version 420,2013-08-10 16:10:00,
2013-08-10 12:15:00,66.0,47.7,29.85,NE,34,3.8,6.5,54,0.00,,,0.00,WSDL version 420,2013-08-10 16:15:00,
2013-08-10 12:20:00,66.1,46.8,29.85,North,360,3.8,4.7,50,0.00,,,0.00,WSDL version 420,2013-08-10 16:20:00,
2013-08-10 12:25:00,66.0,46.1,29.85,WSW,248,3.9,8.7,49,0.00,,,0.00,WSDL version 420,2013-08-10 16:25:00,
2013-08-10 12:32:00,65.8,45.8,29.83,East,84,3.9,8.7,48,0.00,,,0.00,WSDL version 420,2013-08-10 16:32:00,
2013-08-10 12:37:00,65.8,45.3,29.83,NW,309,7.2,22.1,48,0.04,,,0.04,WSDL version 420,2013-08-10 16:37:00,
2013-08-10 12:42:00,65.9,45.7,29.83,North,354,4.4,22.1,49,0.04,,,0.04,WSDL version 420,2013-08-10 16:42:00,
2013-08-10 12:47:00,66.1,46.7,29.83,North,349,4.9,6.0,49,0.04,,,0.04,WSDL version 420,2013-08-10 16:47:00,
2013-08-10 12:52:00,66.3,46.1,29.85,SSW,203,4.7,7.6,48,0.04,,,0.04,WSDL version 420,2013-08-10 16:52:00,
2013-08-10 12:57:00,66.4,46.1,29.85,NW,304,4.5,9.4,47,0.04,,,0.04,WSDL version 420,2013-08-10 16:57:00,
2013-08-10 13:02:00,66.5,45.9,29.85,East,90,6.4,9.4,49,0.04,,,0.04,WSDL version 420,2013-08-10 17:02:00,
2013-08-10 13:07:00,66.7,47.2,29.85,WNW,298,3.9,9.4,49,0.04,,,0.04,WSDL version 420,2013-08-10 17:07:00,
2013-08-10 13:12:00,66.8,45.5,29.85,WNW,302,6.5,10.1,45,0.04,,,0.04,WSDL version 420,2013-08-10 17:12:00,
2013-08-10 13:17:00,66.6,43.9,29.85,NW,315,7.6,10.1,44,0.04,,,0.04,WSDL version 420,2013-08-10 17:17:00,
2013-08-10 13:23:00,66.7,44.6,29.85,NNW,329,5.2,14.1,45,0.04,,,0.04,WSDL version 420,2013-08-10 17:23:00,
2013-08-10 13:28:00,66.9,44.3,29.85,NW,324,8.6,13.0,43,0.04,,,0.04,WSDL version 420,2013-08-10 17:28:00,
2013-08-10 13:33:00,67.1,44.7,29.85,NNW,342,6.0,13.0,45,0.04,,,0.04,WSDL version 420,2013-08-10 17:33:00,
2013-08-10 13:38:00,67.0,44.1,29.85,West,281,8.2,11.0,43,0.00,,,0.04,WSDL version 420,2013-08-10 17:38:00,
2013-08-10 13:43:00,66.9,43.7,29.85,NW,323,3.1,12.1,43,0.00,,,0.04,WSDL version 420,2013-08-10 17:43:00,
2013-08-10 13:48:00,67.1,43.8,29.85,NNW,330,7.5,13.0,43,0.00,,,0.04,WSDL version 420,2013-08-10 17:48:00,
2013-08-10 13:53:00,67.4,44.6,29.85,WNW,298,7.3,13.0,43,0.00,,,0.04,WSDL version 420,2013-08-10 17:53:00,
2013-08-10 13:58:00,67.5,43.6,29.85,WNW,287,5.4,13.0,42,0.00,,,0.04,WSDL version 420,2013-08-10 17:58:00,
2013-08-10 14:03:00,67.5,43.8,29.85,NW,315,11.4,12.5,43,0.00,,,0.04,WSDL version 420,2013-08-10 18:03:00,
2013-08-10 14:08:00,67.5,44.1,29.85,NW,315,11.4,12.5,43,0.00,,,0.04,WSDL version 420,2013-08-10 18:08:00,
2013-08-10 14:13:00,67.6,44.3,29.85,NW,304,4.9,12.5,43,0.00,,,0.04,WSDL version 420,2013-08-10 18:13:00,
2013-08-10 14:18:00,67.6,44.7,-100.00,North,-999,-999.0,-999.0,43,0.00,,,0.04,WSDL version 420,2013-08-10 18:18:00,
2013-08-10 14:23:00,67.8,44.7,29.85,West,270,7.4,7.4,43,0.00,,,0.04,WSDL version 420,2013-08-10 18:23:00,
2013-08-10 14:28:00,67.6,43.8,29.85,WNW,293,9.2,12.8,42,0.00,,,0.04,WSDL version 420,2013-08-10 18:28:00,
2013-08-10 14:33:00,67.6,43.1,29.85,WNW,293,7.4,12.8,41,0.00,,,0.04,WSDL version 420,2013-08-10 18:33:00,
2013-08-10 14:38:00,67.6,42.6,29.85,NW,304,8.3,12.8,39,0.00,,,0.04,WSDL version 420,2013-08-10 18:38:00,
2013-08-10 14:43:00,67.5,43.4,29.85,NNE,30,5.7,10.7,43,0.00,,,0.04,WSDL version 420,2013-08-10 18:43:00,
2013-08-10 14:48:00,67.6,43.1,29.85,NW,304,7.3,11.0,41,0.00,,,0.04,WSDL version 420,2013-08-10 18:48:00,
2013-08-10 14:53:00,67.5,42.5,29.85,NNW,338,7.6,15.4,41,0.00,,,0.04,WSDL version 420,2013-08-10 18:53:00,
2013-08-10 14:58:00,67.6,43.1,29.85,NNW,332,8.4,15.4,41,0.00,,,0.04,WSDL version 420,2013-08-10 18:58:00,
2013-08-10 15:03:00,67.6,43.5,29.85,North,360,6.0,7.8,42,0.00,,,0.04,WSDL version 420,2013-08-10 19:03:00,
2013-08-10 15:08:00,67.7,44.0,29.85,West,263,3.9,7.2,43,0.00,,,0.04,WSDL version 420,2013-08-10 19:08:00,
2013-08-10 15:13:00,67.8,44.3,29.85,NNW,329,6.0,12.5,42,0.00,,,0.04,WSDL version 420,2013-08-10 19:13:00,
2013-08-10 15:20:00,67.8,44.2,29.85,SSW,195,6.3,12.5,42,0.00,,,0.04,WSDL version 420,2013-08-10 19:20:00,
2013-08-10 15:25:00,67.8,43.0,29.85,WNW,287,6.8,8.7,40,0.00,,,0.04,WSDL version 420,2013-08-10 19:25:00,
2013-08-10 15:30:00,67.9,42.8,29.85,WNW,293,7.8,19.2,40,-99.99,,,-99.99,WSDL version 420,2013-08-10 19:30:00,
2013-08-10 15:40:00,68.0,42.5,29.85,North,6,4.5,9.8,39,0.00,,,0.04,WSDL version 420,2013-08-10 19:40:00,
2013-08-10 15:45:00,67.9,43.0,29.85,WNW,284,7.9,10.5,41,0.00,,,0.04,WSDL version 420,2013-08-10 19:45:00,
2013-08-10 15:50:00,68.1,44.2,29.88,NNW,338,4.3,10.5,42,0.00,,,0.04,WSDL version 420,2013-08-10 19:50:00,
2013-08-10 16:00:00,68.2,43.8,29.88,WSW,255,6.7,10.7,41,0.00,,,0.04,WSDL version 420,2013-08-10 20:00:00,
2013-08-10 16:05:00,68.2,44.3,29.85,West,270,2.9,7.8,42,0.00,,,0.04,WSDL version 420,2013-08-10 20:05:00,
2013-08-10 16:10:00,68.3,44.1,29.85,WNW,285,4.0,10.3,42,0.00,,,0.04,WSDL version 420,2013-08-10 20:10:00,
2013-08-10 16:15:00,68.4,44.2,29.85,NW,308,6.5,10.3,42,0.00,,,0.04,WSDL version 420,2013-08-10 20:15:00,
2013-08-10 16:20:00,68.2,43.5,29.88,NW,315,6.9,14.3,41,-99.99,,,-99.99,WSDL version 420,2013-08-10 20:20:00,
2013-08-10 16:25:00,68.0,44.0,29.88,WNW,293,7.8,14.3,43,0.00,,,0.04,WSDL version 420,2013-08-10 20:25:00,
2013-08-10 16:30:00,68.1,44.9,29.88,West,270,5.5,9.8,43,0.00,,,0.04,WSDL version 420,2013-08-10 20:30:00,
2013-08-10 16:35:00,68.1,45.3,29.88,WNW,288,8.0,12.5,44,0.00,,,0.04,WSDL version 420,2013-08-10 20:35:00,
2013-08-10 16:40:00,68.1,45.4,29.88,NW,315,9.3,12.5,44,0.00,,,0.04,WSDL version 420,2013-08-10 20:40:00,
2013-08-10 16:45:00,68.1,45.6,29.88,NW,315,6.9,10.7,43,0.00,,,0.04,WSDL version 420,2013-08-10 20:45:00,
2013-08-10 16:50:00,68.0,44.6,29.88,WNW,293,4.9,9.4,43,0.00,,,0.04,WSDL version 420,2013-08-10 20:50:00,
2013-08-10 16:55:00,67.8,44.8,29.88,WNW,293,6.2,9.4,44,0.00,,,0.04,WSDL version 420,2013-08-10 20:55:00,
2013-08-10 17:00:00,67.6,45.3,29.88,South,180,4.5,8.7,45,0.00,,,0.04,WSDL version 420,2013-08-10 21:00:00,
2013-08-10 17:05:00,66.6,44.6,29.88,West,281,5.9,9.6,45,0.00,,,0.04,WSDL version 420,2013-08-10 21:05:00,
2013-08-10 17:10:00,66.2,44.6,29.88,WNW,287,9.4,10.5,46,0.00,,,0.04,WSDL version 420,2013-08-10 21:10:00,
2013-08-10 17:15:00,66.2,44.8,29.88,NW,315,6.5,10.5,46,0.00,,,0.04,WSDL version 420,2013-08-10 21:15:00,
2013-08-10 17:20:00,66.0,45.0,29.88,West,276,6.5,10.5,47,0.00,,,0.04,WSDL version 420,2013-08-10 21:20:00,
2013-08-10 17:25:00,65.8,45.3,29.88,NW,326,4.9,10.3,48,0.00,,,0.04,WSDL version 420,2013-08-10 21:25:00,
2013-08-10 17:30:00,65.2,44.7,29.88,NNW,345,6.3,10.3,47,0.00,,,0.04,WSDL version 420,2013-08-10 21:30:00,
2013-08-10 17:35:00,64.9,44.6,29.88,WNW,302,4.7,13.9,48,0.00,,,0.04,WSDL version 420,2013-08-10 21:35:00,
2013-08-10 17:40:00,64.8,44.6,29.88,WNW,284,6.4,13.9,48,0.00,,,0.04,WSDL version 420,2013-08-10 21:40:00,
2013-08-10 17:45:00,64.5,45.1,29.88,WNW,293,5.9,9.8,50,0.00,,,0.04,WSDL version 420,2013-08-10 21:45:00,
2013-08-10 17:51:00,64.4,44.8,29.91,WNW,301,5.7,10.1,49,0.00,,,0.04,WSDL version 420,2013-08-10 21:51:00,
2013-08-10 17:56:00,64.3,44.9,29.91,West,274,6.6,13.0,50,0.00,,,0.04,WSDL version 420,2013-08-10 21:56:00,
2013-08-10 18:01:00,63.8,45.2,29.91,WNW,293,3.9,13.0,51,0.00,,,0.04,WSDL version 420,2013-08-10 22:01:00,
2013-08-10 18:06:00,63.7,45.0,29.91,WNW,293,5.1,10.3,51,0.00,,,0.04,WSDL version 420,2013-08-10 22:06:00,
2013-08-10 18:11:00,63.6,44.9,29.91,WNW,296,5.0,12.1,50,0.00,,,0.04,WSDL version 420,2013-08-10 22:11:00,
2013-08-10 18:16:00,63.5,44.6,29.91,West,279,7.6,12.3,50,0.00,,,0.04,WSDL version 420,2013-08-10 22:16:00,
2013-08-10 18:23:00,63.2,44.8,29.91,WNW,298,5.6,12.3,51,0.00,,,0.04,WSDL version 420,2013-08-10 22:23:00,
2013-08-10 18:28:00,63.0,44.6,29.91,NW,311,5.0,11.9,51,0.00,,,0.04,WSDL version 420,2013-08-10 22:28:00,
2013-08-10 18:33:00,62.8,44.5,29.91,West,278,4.0,9.2,52,0.00,,,0.04,WSDL version 420,2013-08-10 22:33:00,
2013-08-10 18:38:00,62.8,44.9,29.91,WNW,296,5.6,9.2,52,0.00,,,0.04,WSDL version 420,2013-08-10 22:38:00,
2013-08-10 18:43:00,62.6,44.8,29.91,WSW,257,4.8,8.1,52,0.00,,,0.04,WSDL version 420,2013-08-10 22:43:00,
2013-08-10 18:48:00,62.4,44.6,29.91,WNW,300,6.1,9.6,52,0.00,,,0.04,WSDL version 420,2013-08-10 22:48:00,
2013-08-10 18:53:00,62.2,44.7,29.91,West,281,4.2,9.6,53,0.00,,,0.04,WSDL version 420,2013-08-10 22:53:00,
2013-08-10 18:58:00,61.8,44.5,29.91,WNW,285,3.3,8.5,53,0.00,,,0.04,WSDL version 420,2013-08-10 22:58:00,
2013-08-10 19:03:00,61.6,44.7,29.91,NNW,329,3.5,7.8,54,0.00,,,0.04,WSDL version 420,2013-08-10 23:03:00,
2013-08-10 19:08:00,61.3,44.6,29.91,WNW,302,3.1,7.8,54,0.00,,,0.04,WSDL version 420,2013-08-10 23:08:00,
2013-08-10 19:13:00,61.1,44.4,29.91,NW,319,3.8,7.6,54,0.00,,,0.04,WSDL version 420,2013-08-10 23:13:00,
2013-08-10 19:19:00,60.8,44.7,29.91,NW,315,3.4,5.8,56,0.00,,,0.04,WSDL version 420,2013-08-10 23:19:00,
2013-08-10 19:24:00,60.4,44.9,29.91,WNW,300,3.5,5.6,57,0.00,,,0.04,WSDL version 420,2013-08-10 23:24:00,
2013-08-10 19:29:00,60.2,44.9,29.91,WNW,288,2.7,4.7,57,0.00,,,0.04,WSDL version 420,2013-08-10 23:29:00,
2013-08-10 19:34:00,60.0,44.7,29.91,NW,311,2.3,4.7,57,0.00,,,0.04,WSDL version 420,2013-08-10 23:34:00,
2013-08-10 19:39:00,59.7,45.2,29.91,WNW,284,1.6,4.7,59,0.00,,,0.04,WSDL version 420,2013-08-10 23:39:00,
2013-08-10 19:44:00,59.5,45.1,29.91,WNW,302,3.1,5.6,59,0.00,,,0.04,WSDL version 420,2013-08-10 23:44:00,
2013-08-10 19:49:00,59.5,45.2,29.91,West,280,1.9,5.6,59,0.00,,,0.04,WSDL version 420,2013-08-10 23:49:00,
2013-08-10 19:54:00,59.3,45.0,29.91,West,270,0.0,3.8,59,0.00,,,0.04,WSDL version 420,2013-08-10 23:54:00,
2013-08-10 19:59:00,59.1,45.2,29.91,West,270,2.5,5.6,60,0.00,,,0.04,WSDL version 420,2013-08-10 23:59:00,
2013-08-10 20:04:00,58.9,45.4,29.91,West,278,3.6,5.6,61,0.00,,,0.04,WSDL version 420,2013-08-11 00:04:00,
2013-08-10 20:09:00,58.6,45.2,29.91,WSW,244,2.2,4.3,61,-99.99,,,-99.99,WSDL version 420,2013-08-11 00:09:00,
2013-08-10 20:14:00,58.5,45.3,29.91,WSW,250,1.1,2.9,62,0.00,,,0.04,WSDL version 420,2013-08-11 00:14:00,
2013-08-10 20:19:00,58.2,45.3,29.91,WSW,238,0.4,2.9,62,0.00,,,0.04,WSDL version 420,2013-08-11 00:19:00,
2013-08-10 20:24:00,58.1,45.5,29.91,WSW,256,1.3,3.4,63,0.00,,,0.04,WSDL version 420,2013-08-11 00:24:00,
2013-08-10 20:29:00,57.7,46.2,29.91,WSW,238,0.0,3.4,66,0.00,,,0.04,WSDL version 420,2013-08-11 00:29:00,
2013-08-10 20:34:00,57.3,46.0,29.91,WNW,293,1.1,3.4,66,0.00,,,0.04,WSDL version 420,2013-08-11 00:34:00,
2013-08-10 20:39:00,57.2,46.0,29.91,West,278,0.0,3.4,66,0.00,,,0.04,WSDL version 420,2013-08-11 00:39:00,
2013-08-10 20:44:00,56.9,46.3,29.91,West,276,0.3,1.6,68,0.00,,,0.04,WSDL version 420,2013-08-11 00:44:00,
2013-08-10 20:49:00,56.7,46.5,29.97,SSW,203,0.5,1.6,69,0.00,,,0.04,WSDL version 420,2013-08-11 00:49:00,
2013-08-10 20:54:00,56.4,46.7,29.97,SSW,203,0.0,1.3,71,0.00,,,0.04,WSDL version 420,2013-08-11 00:54:00,
2013-08-10 20:59:00,56.1,46.6,29.97,SE,128,0.0,2.5,70,0.00,,,0.04,WSDL version 420,2013-08-11 00:59:00,
2013-08-10 21:04:00,55.9,46.6,29.94,SSW,212,0.5,2.5,71,0.00,,,0.04,WSDL version 420,2013-08-11 01:04:00,
2013-08-10 21:09:00,55.5,46.5,29.94,WSW,243,0.7,2.2,72,0.00,,,0.04,WSDL version 420,2013-08-11 01:09:00,
2013-08-10 21:14:00,55.4,46.5,29.94,SW,222,1.0,2.2,72,0.00,,,0.04,WSDL version 420,2013-08-11 01:14:00,
2013-08-10 21:19:00,55.2,46.7,29.94,SW,215,0.9,2.5,73,0.00,,,0.04,WSDL version 420,2013-08-11 01:19:00,
2013-08-10 21:24:00,55.0,46.6,29.94,SSW,209,0.7,2.5,73,0.00,,,0.04,WSDL version 420,2013-08-11 01:24:00,
2013-08-10 21:29:00,54.9,46.4,29.94,SW,222,1.8,2.9,73,0.00,,,0.04,WSDL version 420,2013-08-11 01:29:00,
2013-08-10 21:34:00,54.9,46.7,29.97,WSW,240,0.3,2.9,74,0.00,,,0.04,WSDL version 420,2013-08-11 01:34:00,
2013-08-10 21:39:00,54.9,46.7,29.97,WSW,240,2.8,4.3,74,0.00,,,0.04,WSDL version 420,2013-08-11 01:39:00,
2013-08-10 21:44:00,54.7,46.6,29.97,South,191,0.3,4.3,74,0.00,,,0.04,WSDL version 420,2013-08-11 01:44:00,
2013-08-10 21:49:00,54.7,46.6,29.97,ENE,68,0.0,2.9,74,0.00,,,0.04,WSDL version 420,2013-08-11 01:49:00,
2013-08-10 21:54:00,54.5,46.8,29.97,SE,143,0.0,1.3,75,0.00,,,0.04,WSDL version 420,2013-08-11 01:54:00,
2013-08-10 21:59:00,54.3,46.7,29.97,SW,222,1.3,2.2,76,0.00,,,0.04,WSDL version 420,2013-08-11 01:59:00,
2013-08-10 22:04:00,54.0,46.6,29.97,SW,222,1.0,2.2,76,0.00,,,0.04,WSDL version 420,2013-08-11 02:04:00,
2013-08-10 22:09:00,53.9,46.8,29.97,WSW,248,1.0,2.5,77,0.00,,,0.04,WSDL version 420,2013-08-11 02:09:00,
2013-08-10 22:14:00,54.0,46.9,29.97,West,261,1.3,2.5,77,0.00,,,0.04,WSDL version 420,2013-08-11 02:14:00,
2013-08-10 22:19:00,54.0,47.0,29.97,SW,231,0.6,2.2,78,0.00,,,0.04,WSDL version 420,2013-08-11 02:19:00,
2013-08-10 22:24:00,53.9,47.0,29.97,SW,225,0.0,2.2,78,0.00,,,0.04,WSDL version 420,2013-08-11 02:24:00,
2013-08-10 22:29:00,53.7,47.0,29.97,SSE,161,0.0,2.0,78,-99.99,,,-99.99,WSDL version 420,2013-08-11 02:29:00,
2013-08-10 22:36:00,53.3,46.9,30.00,West,273,0.7,2.2,79,0.00,,,0.04,WSDL version 420,2013-08-11 02:36:00,
2013-08-10 22:41:00,53.1,46.7,30.00,SW,229,1.6,2.7,79,0.00,,,0.04,WSDL version 420,2013-08-11 02:41:00,
2013-08-10 22:46:00,52.9,46.8,30.00,SSW,209,1.5,2.7,80,0.00,,,0.04,WSDL version 420,2013-08-11 02:46:00,
2013-08-10 22:51:00,52.9,47.2,29.97,SW,231,1.2,2.5,81,0.00,,,0.04,WSDL version 420,2013-08-11 02:51:00,
2013-08-10 23:01:00,52.9,47.3,29.97,SW,221,0.0,2.5,82,0.00,,,0.04,WSDL version 420,2013-08-11 03:01:00,
2013-08-10 23:06:00,52.8,47.6,29.97,SW,235,0.4,2.2,82,0.00,,,0.04,WSDL version 420,2013-08-11 03:06:00,
2013-08-10 23:11:00,52.7,47.4,29.97,SW,229,1.3,3.1,82,0.00,,,0.04,WSDL version 420,2013-08-11 03:11:00,
2013-08-10 23:17:00,52.6,47.6,29.97,SSW,200,0.7,3.1,82,0.00,,,0.04,WSDL version 420,2013-08-11 03:17:00,
2013-08-10 23:22:00,52.7,47.7,29.97,SW,225,0.7,2.5,83,0.00,,,0.04,WSDL version 420,2013-08-11 03:22:00,
2013-08-10 23:27:00,52.7,47.8,29.97,WSW,248,0.6,2.2,83,0.00,,,0.04,WSDL version 420,2013-08-11 03:27:00,
2013-08-10 23:32:00,52.7,47.8,29.97,SW,225,0.0,2.0,83,0.00,,,0.04,WSDL version 420,2013-08-11 03:32:00,
2013-08-10 23:37:00,52.4,47.3,29.97,WSW,241,1.2,2.7,82,0.00,,,0.04,WSDL version 420,2013-08-11 03:37:00,
2013-08-10 23:42:00,52.3,47.2,29.97,WSW,241,0.9,2.7,82,0.00,,,0.04,WSDL version 420,2013-08-11 03:42:00,
2013-08-10 23:49:00,52.2,47.3,29.97,SW,225,0.5,2.5,83,0.00,,,0.04,WSDL version 420,2013-08-11 03:49:00,
2013-08-10 23:58:00,52.2,47.3,29.97,SSW,199,0.1,2.5,84,0.00,,,0.04,WSDL version 420,2013-08-11 03:58:00,